createdAt,value
2023-04-13T00:01:11.459Z,1.13
2023-04-13T00:03:39.707Z,1.13
2023-04-13T00:06:10.649Z,1.10
2023-04-13T00:08:37.523Z,1.10
2023-04-13T00:11:05.677Z,1.42
2023-04-13T00:13:37.286Z,1.00
2023-04-13T00:16:05.851Z,1.20
2023-04-13T00:18:32.613Z,1.00
2023-04-13T00:21:00.133Z,1.15
2023-04-13T00:23:27.106Z,1.02
2023-04-13T00:25:53.793Z,0.70
2023-04-13T00:28:20.539Z,0.80
2023-04-13T00:30:47.340Z,0.73
2023-04-13T00:33:14.168Z,0.75
2023-04-13T00:35:41.628Z,0.70
2023-04-13T00:38:08.851Z,1.17
2023-04-13T00:40:37.830Z,0.77
2023-04-13T00:43:05.709Z,1.00
2023-04-13T00:45:38.894Z,1.85
2023-04-13T00:48:09.578Z,1.27
2023-04-13T00:50:36.970Z,1.48
2023-04-13T00:53:09.578Z,1.80
2023-04-13T00:55:39.469Z,1.67
2023-04-13T00:58:06.582Z,1.55
2023-04-13T01:00:33.495Z,1.40
2023-04-13T01:03:01.698Z,1.33
2023-04-13T01:05:35.652Z,1.30
2023-04-13T01:08:09.217Z,1.10
2023-04-13T01:10:48.029Z,1.10
2023-04-13T01:13:29.191Z,1.10
2023-04-13T01:16:05.062Z,1.17
2023-04-13T01:18:37.953Z,1.65
2023-04-13T01:21:05.660Z,1.10
2023-04-13T01:23:35.409Z,1.42
2023-04-13T01:26:08.760Z,0.93
2023-04-13T01:28:38.522Z,1.10
2023-04-13T01:31:11.555Z,1.50
2023-04-13T01:33:42.254Z,1.38
2023-04-13T01:36:11.250Z,1.63
2023-04-13T01:38:38.065Z,1.75
2023-04-13T01:41:04.943Z,1.45
2023-04-13T01:43:32.237Z,1.92
2023-04-13T01:46:14.022Z,1.80
2023-04-13T01:51:25.101Z,1.55
2023-04-13T01:54:07.799Z,1.70
2023-04-13T01:56:35.819Z,1.55
2023-04-13T01:59:03.101Z,1.23
2023-04-13T02:01:29.788Z,1.50
2023-04-13T02:03:57.075Z,2.15
2023-04-13T02:06:24.653Z,1.80
2023-04-13T02:08:52.651Z,1.88
2023-04-13T02:11:19.651Z,1.50
2023-04-13T02:13:47.382Z,1.40
2023-04-13T02:16:14.130Z,1.17
2023-04-13T02:18:41.662Z,1.48
2023-04-13T02:21:12.183Z,1.50
2023-04-13T02:23:41.320Z,1.40
2023-04-13T02:26:19.480Z,1.85
2023-04-13T02:28:46.458Z,1.60
2023-04-13T02:31:17.177Z,1.50
2023-04-13T02:33:44.698Z,1.95
2023-04-13T02:36:11.906Z,1.90
2023-04-13T02:38:38.795Z,1.90
2023-04-13T02:41:06.622Z,1.67
2023-04-13T02:43:34.416Z,1.50
2023-04-13T02:46:01.305Z,1.50
2023-04-13T02:48:28.280Z,1.90
2023-04-13T02:50:55.647Z,2.10
2023-04-13T02:53:22.313Z,1.80
2023-04-13T02:55:50.515Z,1.65
2023-04-13T02:58:17.452Z,1.80
2023-04-13T03:00:44.650Z,2.15
2023-04-13T03:03:11.549Z,1.88
2023-04-13T03:05:38.748Z,1.85
2023-04-13T03:08:05.787Z,2.08
2023-04-13T03:10:32.601Z,1.77
2023-04-13T03:12:59.880Z,1.73
2023-04-13T03:15:26.666Z,2.35
2023-04-13T03:17:53.431Z,2.25
2023-04-13T03:20:21.280Z,2.55
2023-04-13T03:22:47.990Z,1.60
2023-04-13T03:25:14.659Z,2.40
2023-04-13T03:27:41.377Z,2.10
2023-04-13T03:30:08.893Z,2.42
2023-04-13T03:32:35.833Z,1.65
2023-04-13T03:35:02.582Z,1.60
2023-04-13T03:37:32.393Z,1.92
2023-04-13T03:39:59.309Z,1.80
2023-04-13T03:42:26.198Z,1.98
2023-04-13T03:44:53.110Z,2.22
2023-04-13T03:47:20.075Z,1.77
2023-04-13T03:49:47.116Z,1.52
2023-04-13T03:52:14.124Z,1.60
2023-04-13T03:54:40.836Z,1.65
2023-04-13T03:57:07.697Z,2.00
2023-04-13T03:59:34.561Z,1.77
2023-04-13T04:02:02.953Z,1.80
2023-04-13T04:04:30.215Z,1.77
2023-04-13T04:06:58.063Z,1.63
2023-04-13T04:09:25.646Z,1.55
2023-04-13T04:11:52.395Z,1.67
2023-04-13T04:14:20.393Z,1.77
2023-04-13T04:16:47.343Z,1.90
2023-04-13T04:19:14.322Z,1.70
2023-04-13T04:21:46.794Z,1.95
2023-04-13T04:24:23.496Z,1.77
2023-04-13T04:26:50.492Z,1.83
2023-04-13T04:29:17.867Z,1.85
2023-04-13T04:31:44.666Z,1.80
2023-04-13T04:34:11.874Z,1.05
2023-04-13T04:36:41.578Z,1.20
2023-04-13T04:39:09.845Z,1.20
2023-04-13T04:41:37.554Z,1.10
2023-04-13T04:44:08.157Z,1.48
2023-04-13T04:46:38.518Z,1.80
2023-04-13T04:49:05.302Z,1.80
2023-04-13T04:51:32.217Z,1.25
2023-04-13T04:54:02.073Z,1.98
2023-04-13T04:56:29.030Z,1.40
2023-04-13T04:58:56.009Z,1.40
2023-04-13T05:01:26.529Z,1.58
2023-04-13T05:03:53.725Z,1.40
2023-04-13T05:06:20.486Z,1.38
2023-04-13T05:08:47.229Z,1.50
2023-04-13T05:11:14.122Z,1.52
2023-04-13T05:13:41.027Z,1.50
2023-04-13T05:16:08.291Z,1.30
2023-04-13T05:18:45.677Z,1.60
2023-04-13T05:21:14.134Z,1.80
2023-04-13T05:23:42.128Z,2.08
2023-04-13T05:26:12.727Z,1.80
2023-04-13T05:28:39.699Z,1.40
2023-04-13T05:31:08.867Z,1.98
2023-04-13T05:33:35.950Z,2.25
2023-04-13T05:36:04.532Z,1.90
2023-04-13T05:38:31.731Z,2.05
2023-04-13T05:40:58.748Z,2.30
2023-04-13T05:43:25.906Z,2.67
2023-04-13T05:45:52.650Z,2.63
2023-04-13T05:48:19.398Z,3.03
2023-04-13T05:50:46.294Z,2.70
2023-04-13T05:53:13.093Z,2.38
2023-04-13T05:55:42.242Z,2.95
2023-04-13T05:58:11.021Z,2.45
2023-04-13T06:00:38.778Z,2.40
2023-04-13T06:03:06.958Z,3.00
2023-04-13T06:05:35.470Z,2.50
2023-04-13T06:08:02.529Z,2.28
2023-04-13T06:10:29.458Z,2.92
2023-04-13T06:12:56.411Z,1.83
2023-04-13T06:15:23.351Z,1.95
2023-04-13T06:17:53.355Z,2.75
2023-04-13T06:20:21.471Z,2.42
2023-04-13T06:22:48.625Z,2.95
2023-04-13T06:25:16.417Z,3.10
2023-04-13T06:27:43.940Z,2.67
2023-04-13T06:30:11.899Z,2.83
2023-04-13T06:32:38.954Z,3.20
2023-04-13T06:35:06.391Z,3.00
2023-04-13T06:37:35.682Z,3.42
2023-04-13T06:40:15.809Z,3.08
2023-04-13T06:42:43.552Z,3.15
2023-04-13T06:45:12.055Z,2.67
2023-04-13T06:47:42.802Z,3.17
2023-04-13T06:50:11.518Z,3.15
2023-04-13T06:52:38.249Z,3.17
2023-04-13T06:55:05.902Z,3.63
2023-04-13T06:57:32.931Z,2.90
2023-04-13T06:59:59.783Z,3.25
2023-04-13T07:02:27.250Z,2.88
2023-04-13T07:04:54.363Z,3.30
2023-04-13T07:07:21.323Z,3.58
2023-04-13T07:09:48.074Z,4.15
2023-04-13T07:12:14.905Z,3.15
2023-04-13T07:14:42.276Z,3.63
2023-04-13T07:17:11.271Z,3.22
2023-04-13T07:19:43.621Z,2.95
2023-04-13T07:22:10.356Z,3.50
2023-04-13T07:24:37.131Z,3.60
2023-04-13T07:27:03.836Z,2.92
2023-04-13T07:29:30.769Z,2.90
2023-04-13T07:32:02.835Z,2.97
2023-04-13T07:34:30.117Z,2.80
2023-04-13T07:36:56.857Z,2.40
2023-04-13T07:39:23.624Z,2.63
2023-04-13T07:41:50.347Z,3.33
2023-04-13T07:44:17.541Z,2.78
2023-04-13T07:46:44.436Z,2.95
2023-04-13T07:49:11.226Z,2.88
2023-04-13T07:51:38.051Z,2.92
2023-04-13T07:54:04.994Z,2.83
2023-04-13T07:56:31.735Z,2.55
2023-04-13T07:58:58.652Z,2.85
2023-04-13T08:01:26.340Z,2.50
2023-04-13T08:03:53.417Z,3.35
2023-04-13T08:06:23.420Z,2.60
2023-04-13T08:08:50.170Z,2.80
2023-04-13T08:11:16.887Z,2.67
2023-04-13T08:13:43.715Z,3.03
2023-04-13T08:16:11.253Z,3.05
2023-04-13T08:18:38.399Z,2.70
2023-04-13T08:21:11.245Z,2.63
2023-04-13T08:23:41.721Z,2.63
2023-04-13T08:26:16.151Z,2.65
2023-04-13T08:28:42.877Z,3.40
2023-04-13T08:31:09.603Z,2.75
2023-04-13T08:33:36.276Z,2.60
2023-04-13T08:36:03.164Z,2.35
2023-04-13T08:38:29.894Z,2.40
2023-04-13T08:40:57.119Z,2.80
2023-04-13T08:43:23.886Z,2.70
2023-04-13T08:45:51.041Z,2.60
2023-04-13T08:48:19.358Z,2.70
2023-04-13T08:50:47.557Z,2.53
2023-04-13T08:53:18.117Z,2.42
2023-04-13T08:55:45.971Z,2.70
2023-04-13T08:58:14.777Z,2.22
2023-04-13T09:00:43.256Z,2.40
2023-04-13T09:03:14.593Z,2.47
2023-04-13T09:05:42.530Z,2.03
2023-04-13T09:08:11.454Z,2.60
2023-04-13T09:10:38.223Z,3.17
2023-04-13T09:13:05.352Z,3.15
2023-04-13T09:15:32.893Z,3.63
2023-04-13T09:18:12.810Z,2.45
2023-04-13T09:20:40.631Z,2.70
2023-04-13T09:23:17.059Z,2.35
2023-04-13T09:25:46.851Z,3.20
2023-04-13T09:28:18.132Z,4.25
2023-04-13T09:30:44.991Z,3.42
2023-04-13T09:33:13.405Z,2.80
2023-04-13T09:35:40.148Z,2.67
2023-04-13T09:38:08.334Z,3.33
2023-04-13T09:40:38.415Z,2.83
2023-04-13T09:43:07.850Z,2.75
2023-04-13T09:45:39.797Z,2.90
2023-04-13T09:48:23.050Z,2.28
2023-04-13T09:51:05.479Z,2.67
2023-04-13T09:53:47.269Z,2.78
2023-04-13T09:58:45.451Z,2.50
2023-04-13T10:01:13.140Z,3.38
2023-04-13T10:03:40.026Z,3.20
2023-04-13T10:06:08.205Z,3.22
2023-04-13T10:08:38.849Z,2.85
2023-04-13T10:11:11.098Z,2.92
2023-04-13T10:13:43.616Z,2.20
2023-04-13T10:16:19.288Z,2.65
2023-04-13T10:18:48.856Z,2.50
2023-04-13T10:21:16.816Z,3.35
2023-04-13T10:23:43.994Z,2.78
2023-04-13T10:26:10.952Z,2.50
2023-04-13T10:28:48.296Z,2.85
2023-04-13T10:31:15.127Z,2.70
2023-04-13T10:33:49.757Z,2.75
2023-04-13T10:36:17.366Z,3.05
2023-04-13T10:38:47.470Z,2.35
2023-04-13T10:41:24.899Z,2.55
2023-04-13T10:44:02.217Z,1.90
2023-04-13T10:46:29.307Z,3.60
2023-04-13T10:48:59.245Z,2.78
2023-04-13T10:51:47.125Z,3.05
2023-04-13T10:54:14.485Z,2.38
2023-04-13T10:56:41.253Z,2.53
2023-04-13T10:59:08.248Z,3.85
2023-04-13T11:01:35.796Z,3.45
2023-04-13T11:04:09.876Z,3.13
2023-04-13T11:06:41.125Z,2.75
2023-04-13T11:09:11.531Z,3.08
2023-04-13T11:11:41.927Z,2.92
2023-04-13T11:14:08.663Z,2.90
2023-04-13T11:16:45.514Z,3.13
2023-04-13T11:19:12.388Z,2.78
2023-04-13T11:21:39.089Z,2.60
2023-04-13T11:24:06.010Z,2.67
2023-04-13T11:26:34.230Z,3.20
2023-04-13T11:29:03.534Z,3.10
2023-04-13T11:31:40.858Z,2.60
2023-04-13T11:34:11.408Z,2.45
2023-04-13T11:36:42.187Z,2.53
2023-04-13T11:39:10.623Z,2.47
2023-04-13T11:41:41.935Z,2.38
2023-04-13T11:44:11.268Z,2.65
2023-04-13T11:46:38.265Z,2.15
2023-04-13T11:49:05.185Z,2.22
2023-04-13T11:51:33.053Z,1.90
2023-04-13T11:54:01.164Z,2.47
2023-04-13T11:56:28.736Z,2.20
2023-04-13T11:58:55.666Z,2.22
2023-04-13T12:01:27.171Z,3.75
2023-04-13T12:04:14.980Z,2.85
2023-04-13T12:06:45.908Z,2.80
2023-04-13T12:09:17.332Z,2.72
2023-04-13T12:11:52.142Z,2.78
2023-04-13T12:17:06.266Z,2.67
2023-04-13T12:19:45.980Z,2.30
2023-04-13T12:22:14.653Z,2.80
2023-04-13T12:24:42.842Z,2.90
2023-04-13T12:27:18.325Z,2.03
2023-04-13T12:29:45.997Z,2.65
2023-04-13T12:32:15.154Z,2.30
2023-04-13T12:34:43.051Z,2.75
2023-04-13T12:37:11.272Z,2.70
2023-04-13T12:39:38.218Z,2.55
2023-04-13T12:42:05.149Z,2.45
2023-04-13T12:44:33.740Z,2.45
2023-04-13T12:47:01.638Z,2.63
2023-04-13T12:49:28.553Z,2.33
2023-04-13T12:51:55.514Z,2.67
2023-04-13T12:54:22.188Z,2.92
2023-04-13T12:56:48.997Z,2.60
2023-04-13T12:59:16.650Z,3.03
2023-04-13T13:01:43.492Z,2.88
2023-04-13T13:04:10.397Z,2.75
2023-04-13T13:06:37.173Z,2.88
2023-04-13T13:09:03.941Z,2.78
2023-04-13T13:11:31.342Z,2.90
2023-04-13T13:13:58.054Z,2.90
2023-04-13T13:16:24.813Z,2.42
2023-04-13T13:18:52.303Z,2.63
2023-04-13T13:21:19.612Z,2.53
2023-04-13T13:23:46.512Z,2.28
2023-04-13T13:26:23.736Z,2.58
2023-04-13T13:28:52.056Z,3.05
2023-04-13T13:31:19.497Z,2.85
2023-04-13T13:33:46.668Z,2.50
2023-04-13T13:36:14.344Z,2.10
2023-04-13T13:38:42.821Z,2.80
2023-04-13T13:41:09.795Z,2.33
2023-04-13T13:43:36.503Z,2.47
2023-04-13T13:46:05.525Z,2.95
2023-04-13T13:48:32.419Z,2.70
2023-04-13T13:50:59.281Z,2.60
2023-04-13T13:53:26.442Z,2.60
2023-04-13T13:55:53.636Z,2.38
2023-04-13T13:58:20.572Z,2.72
2023-04-13T14:00:47.400Z,3.03
2023-04-13T14:03:15.403Z,2.63
2023-04-13T14:05:45.703Z,2.65
2023-04-13T14:08:12.499Z,2.35
2023-04-13T14:10:39.663Z,2.90
2023-04-13T14:13:06.479Z,2.92
2023-04-13T14:15:33.457Z,2.80
2023-04-13T14:18:09.155Z,3.28
2023-04-13T14:20:38.835Z,2.80
2023-04-13T14:23:06.409Z,3.25
2023-04-13T14:25:33.179Z,2.63
2023-04-13T14:28:00.065Z,3.05
2023-04-13T14:30:28.129Z,2.97
2023-04-13T14:32:56.239Z,2.85
2023-04-13T14:35:23.646Z,3.30
2023-04-13T14:37:50.407Z,2.80
2023-04-13T14:40:21.701Z,2.95
2023-04-13T14:42:50.811Z,3.17
2023-04-13T14:45:17.737Z,2.85
2023-04-13T14:47:44.589Z,2.70
2023-04-13T14:50:12.078Z,2.90
2023-04-13T14:52:39.802Z,2.67
2023-04-13T14:55:06.960Z,2.65
2023-04-13T14:57:33.773Z,2.63
2023-04-13T15:00:00.590Z,2.95
2023-04-13T15:02:30.891Z,3.42
2023-04-13T15:04:58.332Z,3.38
2023-04-13T15:07:29.650Z,3.22
2023-04-13T15:09:56.950Z,2.63
2023-04-13T15:12:23.689Z,2.70
2023-04-13T15:14:51.076Z,2.55
2023-04-13T15:17:17.904Z,2.50
2023-04-13T15:19:44.625Z,3.10
2023-04-13T15:22:11.368Z,2.38
2023-04-13T15:24:38.185Z,2.83
2023-04-13T15:27:05.053Z,2.83
2023-04-13T15:29:31.962Z,3.05
2023-04-13T15:31:59.400Z,3.15
2023-04-13T15:34:27.637Z,3.22
2023-04-13T15:36:56.946Z,3.08
2023-04-13T15:39:23.665Z,3.10
2023-04-13T15:41:52.615Z,2.55
2023-04-13T15:44:19.456Z,2.88
2023-04-13T15:46:48.066Z,2.83
2023-04-13T15:49:14.933Z,2.67
2023-04-13T15:51:41.668Z,3.05
2023-04-13T15:54:08.397Z,2.28
2023-04-13T15:56:35.510Z,2.80
2023-04-13T15:59:02.544Z,2.72
2023-04-13T16:01:44.578Z,3.03
2023-04-13T16:04:11.903Z,2.58
2023-04-13T16:06:38.662Z,2.45
2023-04-13T16:09:05.522Z,2.53
2023-04-13T16:11:32.423Z,3.08
2023-04-13T16:14:06.917Z,2.58
2023-04-13T16:16:53.516Z,2.90
2023-04-13T16:19:20.995Z,2.72
2023-04-13T16:21:50.818Z,2.90
2023-04-13T16:24:20.084Z,3.03
2023-04-13T16:26:47.140Z,2.60
2023-04-13T16:29:13.931Z,2.90
2023-04-13T16:31:44.600Z,2.90
2023-04-13T16:34:24.785Z,3.60
2023-04-13T16:36:53.088Z,3.35
2023-04-13T16:39:21.061Z,3.10
2023-04-13T16:41:47.734Z,3.22
2023-04-13T16:44:14.469Z,2.88
2023-04-13T16:46:41.375Z,3.20
2023-04-13T16:49:08.147Z,2.72
2023-04-13T16:51:34.942Z,4.03
2023-04-13T16:54:04.019Z,3.15
2023-04-13T16:56:30.730Z,2.97
2023-04-13T16:58:57.851Z,2.85
2023-04-13T17:01:25.575Z,3.28
2023-04-13T17:03:53.388Z,3.65
2023-04-13T17:06:21.122Z,3.25
2023-04-13T17:08:48.099Z,3.60
2023-04-13T17:11:14.869Z,3.38
2023-04-13T17:13:41.712Z,3.17
2023-04-13T17:16:08.834Z,2.97
2023-04-13T17:18:35.744Z,3.38
2023-04-13T17:21:02.461Z,3.20
2023-04-13T17:23:29.294Z,2.92
2023-04-13T17:25:56.723Z,3.83
2023-04-13T17:28:24.478Z,3.70
2023-04-13T17:30:51.484Z,3.47
2023-04-13T17:33:18.711Z,2.83
2023-04-13T17:35:45.492Z,3.35
2023-04-13T17:38:12.311Z,3.20
2023-04-13T17:40:39.023Z,2.83
2023-04-13T17:43:08.303Z,3.28
2023-04-13T17:45:35.113Z,2.95
2023-04-13T17:48:02.328Z,2.80
2023-04-13T17:50:31.253Z,3.03
2023-04-13T17:52:58.121Z,2.88
2023-04-13T17:55:24.851Z,2.83
2023-04-13T17:57:51.553Z,3.15
2023-04-13T18:00:19.271Z,2.85
2023-04-13T18:02:49.289Z,3.30
2023-04-13T18:05:18.163Z,2.33
2023-04-13T18:07:45.001Z,3.15
2023-04-13T18:10:11.891Z,2.92
2023-04-13T18:12:41.446Z,3.08
2023-04-13T18:15:08.896Z,3.20
2023-04-13T18:17:38.943Z,3.22
2023-04-13T18:20:06.554Z,2.60
2023-04-13T18:22:33.429Z,2.95
2023-04-13T18:25:00.458Z,3.08
2023-04-13T18:27:27.655Z,3.45
2023-04-13T18:29:57.863Z,3.55
2023-04-13T18:32:24.570Z,3.65
2023-04-13T18:34:51.387Z,3.83
2023-04-13T18:37:18.196Z,3.92
2023-04-13T18:39:45.140Z,3.05
2023-04-13T18:42:11.922Z,3.65
2023-04-13T18:44:38.670Z,3.03
2023-04-13T18:47:05.604Z,3.17
2023-04-13T18:49:32.466Z,3.13
2023-04-13T18:51:59.411Z,3.03
2023-04-13T18:54:26.161Z,3.88
2023-04-13T18:56:52.936Z,4.07
2023-04-13T18:59:19.634Z,3.58
2023-04-13T19:01:46.986Z,3.45
2023-04-13T19:04:14.116Z,3.72
2023-04-13T19:06:41.113Z,3.03
2023-04-13T19:09:08.315Z,3.33
2023-04-13T19:11:47.572Z,2.97
2023-04-13T19:14:14.510Z,3.10
2023-04-13T19:16:41.568Z,3.10
2023-04-13T19:19:08.801Z,3.08
2023-04-13T19:21:35.633Z,3.25
2023-04-13T19:24:02.355Z,2.65
2023-04-13T19:26:29.442Z,2.42
2023-04-13T19:28:56.206Z,2.20
2023-04-13T19:31:23.252Z,2.40
2023-04-13T19:33:51.503Z,2.40
2023-04-13T19:36:18.305Z,2.15
2023-04-13T19:38:45.568Z,2.25
2023-04-13T19:41:12.799Z,1.90
2023-04-13T19:43:39.713Z,1.90
2023-04-13T19:46:06.503Z,2.08
2023-04-13T19:48:33.233Z,2.30
2023-04-13T19:50:59.987Z,1.90
2023-04-13T19:53:26.638Z,1.70
2023-04-13T19:55:53.440Z,2.15
2023-04-13T19:58:20.130Z,1.90
2023-04-13T20:00:47.340Z,1.88
2023-04-13T20:03:14.334Z,2.08
2023-04-13T20:05:41.209Z,1.80
2023-04-13T20:08:07.939Z,1.80
2023-04-13T20:10:34.745Z,2.28
2023-04-13T20:13:01.486Z,2.20
2023-04-13T20:15:31.033Z,2.65
2023-04-13T20:17:57.880Z,2.25
2023-04-13T20:20:24.668Z,2.15
2023-04-13T20:22:51.387Z,2.25
2023-04-13T20:25:18.132Z,2.22
2023-04-13T20:27:45.629Z,2.22
2023-04-13T20:30:12.772Z,2.67
2023-04-13T20:32:39.753Z,2.45
2023-04-13T20:35:06.875Z,2.38
2023-04-13T20:37:33.628Z,2.75
2023-04-13T20:40:00.677Z,2.47
2023-04-13T20:42:29.650Z,2.20
2023-04-13T20:45:00.036Z,2.60
2023-04-13T20:47:28.786Z,2.35
2023-04-13T20:49:57.677Z,2.53
2023-04-13T20:52:27.211Z,2.70
2023-04-13T20:54:57.129Z,2.40
2023-04-13T20:57:23.836Z,3.22
2023-04-13T20:59:52.063Z,2.67
2023-04-13T21:02:20.470Z,2.67
2023-04-13T21:04:47.354Z,2.80
2023-04-13T21:07:15.438Z,2.63
2023-04-13T21:09:42.431Z,2.97
2023-04-13T21:12:09.152Z,3.58
2023-04-13T21:14:36.077Z,3.97
2023-04-13T21:17:02.890Z,3.50
2023-04-13T21:19:29.766Z,4.78
2023-04-13T21:21:57.446Z,5.25
2023-04-13T21:24:24.476Z,5.93
2023-04-13T21:26:51.274Z,5.60
2023-04-13T21:29:19.993Z,5.22
2023-04-13T21:31:47.685Z,5.07
2023-04-13T21:34:14.750Z,5.43
2023-04-13T21:39:14.141Z,4.22
2023-04-13T21:41:41.490Z,4.57
2023-04-13T21:44:16.204Z,3.97
2023-04-13T21:46:53.162Z,3.13
2023-04-13T21:49:19.914Z,4.00
2023-04-13T21:51:46.650Z,3.13
2023-04-13T21:54:13.433Z,3.05
2023-04-13T21:56:40.119Z,3.20
2023-04-13T21:59:06.869Z,3.22
2023-04-13T22:01:33.639Z,3.05
2023-04-13T22:04:00.806Z,2.70
2023-04-13T22:06:29.628Z,2.78
2023-04-13T22:08:56.318Z,2.65
2023-04-13T22:11:23.064Z,3.10
2023-04-13T22:13:49.772Z,2.45
2023-04-13T22:16:16.864Z,2.80
2023-04-13T22:18:43.606Z,3.05
2023-04-13T22:21:10.497Z,2.80
2023-04-13T22:23:37.167Z,2.75
2023-04-13T22:26:04.128Z,2.95
2023-04-13T22:28:31.987Z,2.30
2023-04-13T22:31:06.979Z,2.55
2023-04-13T22:33:36.146Z,3.38
2023-04-13T22:36:04.131Z,2.60
2023-04-13T22:38:30.984Z,2.60
2023-04-13T22:40:58.262Z,2.50
2023-04-13T22:43:25.208Z,2.28
2023-04-13T22:45:58.522Z,3.10
2023-04-13T22:48:25.786Z,2.95
2023-04-13T22:50:52.622Z,2.92
2023-04-13T22:53:19.436Z,3.40
2023-04-13T22:55:46.481Z,3.72
2023-04-13T22:58:13.180Z,4.40
2023-04-13T23:00:39.932Z,3.63
2023-04-13T23:03:07.371Z,3.17
2023-04-13T23:05:35.465Z,3.90
2023-04-13T23:08:02.190Z,3.78
2023-04-13T23:10:31.486Z,3.20
2023-04-13T23:12:58.882Z,4.60
2023-04-13T23:15:25.730Z,3.92
2023-04-13T23:17:56.310Z,4.32
2023-04-13T23:20:24.050Z,5.13
2023-04-13T23:22:50.716Z,5.00
2023-04-13T23:25:17.568Z,5.07
2023-04-13T23:27:44.424Z,5.65
2023-04-13T23:30:11.589Z,5.07
2023-04-13T23:32:38.370Z,4.78
2023-04-13T23:35:06.004Z,5.35
2023-04-13T23:37:32.828Z,5.28
2023-04-13T23:39:59.709Z,5.00
2023-04-13T23:42:26.504Z,4.60
2023-04-13T23:44:53.237Z,4.88
2023-04-13T23:47:20.020Z,4.20
2023-04-13T23:49:46.848Z,4.57
2023-04-13T23:52:13.571Z,5.05
2023-04-13T23:54:40.427Z,4.70
2023-04-13T23:57:07.233Z,5.15
2023-04-13T23:59:33.947Z,5.20
